createdAt,value
2022-11-23T00:01:18.977Z,3.65
2022-11-23T00:03:48.171Z,4.10
2022-11-23T00:06:16.279Z,3.83
2022-11-23T00:08:43.921Z,3.75
2022-11-23T00:11:11.393Z,4.40
2022-11-23T00:13:40.743Z,4.32
2022-11-23T00:16:15.185Z,3.57
2022-11-23T00:18:42.177Z,3.95
2022-11-23T00:21:10.788Z,3.83
2022-11-23T00:23:38.294Z,3.75
2022-11-23T00:26:06.167Z,3.97
2022-11-23T00:28:33.160Z,3.88
2022-11-23T00:31:00.114Z,4.00
2022-11-23T00:33:26.936Z,5.32
2022-11-23T00:36:07.954Z,4.32
2022-11-23T00:38:34.977Z,4.00
2022-11-23T00:41:05.757Z,3.65
2022-11-23T00:43:33.312Z,3.90
2022-11-23T00:46:20.797Z,4.15
2022-11-23T00:48:49.687Z,3.90
2022-11-23T00:51:19.332Z,3.53
2022-11-23T00:53:46.793Z,3.80
2022-11-23T00:56:14.173Z,3.63
2022-11-23T00:58:41.214Z,3.25
2022-11-23T01:01:11.295Z,3.72
2022-11-23T01:03:44.083Z,4.25
2022-11-23T01:06:17.198Z,3.22
2022-11-23T01:08:50.732Z,3.20
2022-11-23T01:11:18.296Z,3.40
2022-11-23T01:13:45.162Z,3.75
2022-11-23T01:16:23.859Z,3.30
2022-11-23T01:18:59.883Z,3.07
2022-11-23T01:21:28.686Z,3.67
2022-11-23T01:23:55.788Z,3.60
2022-11-23T01:26:23.457Z,3.42
2022-11-23T01:28:51.445Z,3.58
2022-11-23T01:31:21.798Z,3.20
2022-11-23T01:36:25.073Z,3.30
2022-11-23T01:38:52.308Z,3.35
2022-11-23T01:41:27.077Z,3.45
2022-11-23T01:43:54.743Z,3.15
2022-11-23T01:46:21.943Z,3.33
2022-11-23T01:49:08.000Z,3.35
2022-11-23T01:51:41.674Z,3.15
2022-11-23T01:54:23.377Z,3.20
2022-11-23T01:56:55.535Z,3.50
2022-11-23T01:59:25.278Z,3.67
2022-11-23T02:01:52.114Z,3.25
2022-11-23T02:04:26.142Z,3.55
2022-11-23T02:06:54.471Z,3.38
2022-11-23T02:09:22.774Z,3.70
2022-11-23T02:11:49.677Z,3.60
2022-11-23T02:14:20.499Z,3.55
2022-11-23T02:16:50.157Z,3.35
2022-11-23T02:19:44.203Z,3.20
2022-11-23T02:22:19.832Z,3.20
2022-11-23T02:24:52.709Z,3.20
2022-11-23T02:27:20.114Z,3.25
2022-11-23T02:29:48.474Z,3.17
2022-11-23T02:32:23.297Z,3.20
2022-11-23T02:34:51.267Z,3.22
2022-11-23T02:37:19.474Z,3.28
2022-11-23T02:39:49.737Z,3.10
2022-11-23T02:42:17.061Z,3.17
2022-11-23T02:44:51.375Z,3.33
2022-11-23T02:47:18.424Z,3.95
2022-11-23T02:49:49.777Z,3.67
2022-11-23T02:52:18.794Z,3.00
2022-11-23T02:54:46.097Z,2.75
2022-11-23T02:57:13.653Z,3.10
2022-11-23T02:59:44.813Z,3.45
2022-11-23T03:02:11.863Z,3.20
2022-11-23T03:04:38.711Z,3.30
2022-11-23T03:07:05.714Z,3.25
2022-11-23T03:09:32.969Z,3.42
2022-11-23T03:11:59.987Z,3.20
2022-11-23T03:14:28.683Z,2.95
2022-11-23T03:16:59.484Z,3.05
2022-11-23T03:19:27.993Z,3.22
2022-11-23T03:21:54.807Z,2.83
2022-11-23T03:24:21.783Z,3.60
2022-11-23T03:26:50.960Z,3.22
2022-11-23T03:29:20.219Z,5.25
2022-11-23T03:31:47.979Z,3.67
2022-11-23T03:34:17.371Z,3.30
2022-11-23T03:36:45.294Z,3.47
2022-11-23T03:39:13.360Z,3.92
2022-11-23T03:42:18.451Z,3.60
2022-11-23T03:44:46.274Z,3.42
2022-11-23T03:47:13.097Z,3.70
2022-11-23T03:49:39.952Z,3.97
2022-11-23T03:52:07.178Z,3.65
2022-11-23T03:54:34.123Z,3.47
2022-11-23T03:57:01.377Z,3.13
2022-11-23T03:59:28.217Z,3.35
2022-11-23T04:01:55.753Z,6.43
2022-11-23T04:04:27.014Z,5.25
2022-11-23T04:07:14.177Z,3.40
2022-11-23T04:09:47.904Z,3.30
2022-11-23T04:12:26.388Z,3.40
2022-11-23T04:14:53.333Z,3.13
2022-11-23T04:17:20.233Z,2.92
2022-11-23T04:19:48.587Z,3.13
2022-11-23T04:22:16.067Z,2.90
2022-11-23T04:24:43.136Z,3.10
2022-11-23T04:27:10.148Z,3.22
2022-11-23T04:29:37.959Z,3.20
2022-11-23T04:32:04.988Z,2.90
2022-11-23T04:34:31.982Z,3.25
2022-11-23T04:37:01.326Z,4.37
2022-11-23T04:39:34.320Z,3.42
2022-11-23T04:42:19.884Z,3.30
2022-11-23T04:44:54.472Z,2.90
2022-11-23T04:47:21.384Z,4.15
2022-11-23T04:49:48.821Z,3.28
2022-11-23T04:52:15.983Z,3.50
2022-11-23T04:54:47.414Z,3.20
2022-11-23T04:57:14.574Z,3.53
2022-11-23T04:59:43.236Z,4.18
2022-11-23T05:02:10.529Z,3.15
2022-11-23T05:04:40.582Z,3.60
2022-11-23T05:07:07.657Z,3.25
2022-11-23T05:09:35.972Z,3.25
2022-11-23T05:12:28.892Z,3.22
2022-11-23T05:14:55.822Z,3.28
2022-11-23T05:17:31.969Z,3.25
2022-11-23T05:19:58.909Z,3.10
2022-11-23T05:22:27.346Z,3.63
2022-11-23T05:24:54.489Z,3.85
2022-11-23T05:27:24.128Z,3.37
2022-11-23T05:29:51.171Z,3.05
2022-11-23T05:32:18.079Z,3.10
2022-11-23T05:34:45.153Z,2.90
2022-11-23T05:37:14.793Z,3.67
2022-11-23T05:39:50.836Z,3.17
2022-11-23T05:42:18.658Z,2.80
2022-11-23T05:44:46.225Z,3.40
2022-11-23T05:47:19.810Z,4.18
2022-11-23T05:49:47.857Z,3.28
2022-11-23T05:52:16.833Z,3.70
2022-11-23T05:54:45.086Z,2.85
2022-11-23T05:57:15.949Z,6.47
2022-11-23T05:59:44.779Z,3.55
2022-11-23T06:02:17.288Z,3.50
2022-11-23T06:04:44.588Z,11.02
2022-11-23T06:07:15.815Z,3.72
2022-11-23T06:10:01.275Z,3.97
2022-11-23T06:12:29.207Z,5.10
2022-11-23T06:14:58.211Z,3.90
2022-11-23T06:17:27.012Z,3.20
2022-11-23T06:19:59.711Z,3.20
2022-11-23T06:22:26.567Z,3.28
2022-11-23T06:24:59.610Z,4.93
2022-11-23T06:28:12.544Z,3.97
2022-11-23T06:30:45.799Z,4.38
2022-11-23T06:33:13.632Z,4.20
2022-11-23T06:35:58.769Z,3.80
2022-11-23T06:38:30.602Z,4.53
2022-11-23T06:41:12.345Z,4.40
2022-11-23T06:43:40.087Z,3.20
2022-11-23T06:46:07.796Z,6.68
2022-11-23T06:48:39.252Z,6.40
2022-11-23T06:51:07.597Z,5.35
2022-11-23T06:53:36.497Z,5.53
2022-11-23T06:56:06.781Z,5.50
2022-11-23T06:58:34.317Z,6.18
2022-11-23T07:01:06.541Z,7.72
2022-11-23T07:03:39.810Z,8.35
2022-11-23T07:06:17.322Z,7.65
2022-11-23T07:08:44.346Z,6.13
2022-11-23T07:11:26.821Z,5.60
2022-11-23T07:13:53.853Z,6.28
2022-11-23T07:16:21.728Z,5.93
2022-11-23T07:18:50.695Z,5.63
2022-11-23T07:21:18.232Z,5.30
2022-11-23T07:23:46.254Z,5.80
2022-11-23T07:26:13.055Z,5.30
2022-11-23T07:28:40.057Z,5.13
2022-11-23T07:31:07.621Z,5.22
2022-11-23T07:33:34.509Z,4.90
2022-11-23T07:36:05.500Z,5.55
2022-11-23T07:38:32.401Z,5.57
2022-11-23T07:41:01.852Z,5.30
2022-11-23T07:43:47.157Z,6.05
2022-11-23T07:46:14.043Z,7.88
2022-11-23T07:48:40.915Z,7.88
2022-11-23T07:51:07.955Z,6.22
2022-11-23T07:53:36.451Z,6.70
2022-11-23T07:56:03.782Z,6.82
2022-11-23T07:58:36.142Z,6.95
2022-11-23T08:01:03.188Z,7.55
2022-11-23T08:03:30.604Z,7.25
2022-11-23T08:05:57.880Z,6.97
2022-11-23T08:08:24.813Z,5.40
2022-11-23T08:10:54.270Z,5.65
2022-11-23T08:13:22.439Z,4.00
2022-11-23T08:15:55.822Z,3.78
2022-11-23T08:18:24.490Z,5.63
2022-11-23T08:20:51.448Z,3.70
2022-11-23T08:23:18.546Z,3.58
2022-11-23T08:25:45.481Z,4.35
2022-11-23T08:28:12.486Z,4.03
2022-11-23T08:30:39.626Z,4.28
2022-11-23T08:33:07.794Z,4.38
2022-11-23T08:35:38.341Z,4.10
2022-11-23T08:38:06.365Z,4.20
2022-11-23T08:40:33.777Z,4.88
2022-11-23T08:43:01.128Z,4.75
2022-11-23T08:45:28.262Z,4.78
2022-11-23T08:47:59.862Z,6.72
2022-11-23T08:50:26.909Z,6.70
2022-11-23T08:52:58.071Z,7.93
2022-11-23T08:55:26.681Z,7.95
2022-11-23T08:57:58.049Z,7.78
2022-11-23T09:00:25.635Z,8.10
2022-11-23T09:02:52.697Z,6.70
2022-11-23T09:05:19.581Z,8.35
2022-11-23T09:07:46.457Z,8.18
2022-11-23T09:10:17.945Z,7.55
2022-11-23T09:12:45.499Z,6.45
2022-11-23T09:15:12.412Z,7.53
2022-11-23T09:17:39.303Z,7.72
2022-11-23T09:20:07.451Z,7.03
2022-11-23T09:22:34.507Z,6.93
2022-11-23T09:25:01.564Z,6.13
2022-11-23T09:27:28.638Z,7.15
2022-11-23T09:29:55.476Z,6.75
2022-11-23T09:32:22.414Z,7.13
2022-11-23T09:34:49.273Z,7.00
2022-11-23T09:37:16.171Z,8.10
2022-11-23T09:39:43.699Z,7.93
2022-11-23T09:42:39.662Z,7.65
2022-11-23T09:45:12.468Z,8.27
2022-11-23T09:47:51.686Z,10.30
2022-11-23T09:50:29.863Z,10.80
2022-11-23T09:52:56.800Z,9.13
2022-11-23T09:55:44.011Z,8.52
2022-11-23T09:58:17.605Z,7.85
2022-11-23T10:01:03.255Z,9.57
2022-11-23T10:03:35.696Z,8.70
2022-11-23T10:06:22.699Z,8.75
2022-11-23T10:09:13.852Z,14.15
2022-11-23T10:11:49.683Z,7.80
2022-11-23T10:14:34.535Z,8.20
2022-11-23T10:17:07.450Z,8.55
2022-11-23T10:20:19.953Z,7.90
2022-11-23T10:23:00.548Z,8.15
2022-11-23T10:25:40.605Z,8.75
2022-11-23T10:28:14.348Z,8.02
2022-11-23T10:30:41.871Z,8.23
2022-11-23T10:33:26.978Z,7.25
2022-11-23T10:35:53.910Z,7.78
2022-11-23T10:38:22.180Z,6.68
2022-11-23T10:41:11.682Z,5.78
2022-11-23T10:43:54.066Z,5.65
2022-11-23T10:46:28.358Z,5.50
2022-11-23T10:48:55.930Z,6.47
2022-11-23T10:51:33.516Z,7.28
2022-11-23T10:54:05.379Z,7.50
2022-11-23T10:56:34.422Z,5.93
2022-11-23T10:59:01.639Z,6.53
2022-11-23T11:01:30.476Z,6.72
2022-11-23T11:04:04.262Z,9.05
2022-11-23T11:06:34.723Z,9.55
2022-11-23T11:09:08.397Z,9.23
2022-11-23T11:11:45.524Z,9.52
2022-11-23T11:14:23.483Z,8.95
2022-11-23T11:16:55.589Z,9.27
2022-11-23T11:19:36.256Z,8.70
2022-11-23T11:22:25.150Z,8.77
2022-11-23T11:24:52.039Z,8.63
2022-11-23T11:27:24.003Z,8.15
2022-11-23T11:29:53.869Z,8.55
2022-11-23T11:32:29.481Z,8.45
2022-11-23T11:35:21.077Z,8.60
2022-11-23T11:37:51.364Z,8.25
2022-11-23T11:40:45.404Z,7.72
2022-11-23T11:43:16.437Z,8.02
2022-11-23T11:46:06.553Z,7.10
2022-11-23T11:48:35.465Z,6.28
2022-11-23T11:51:13.826Z,9.38
2022-11-23T11:53:53.515Z,6.70
2022-11-23T11:56:40.141Z,6.28
2022-11-23T11:59:28.384Z,7.03
2022-11-23T12:02:18.366Z,6.47
2022-11-23T12:05:24.243Z,7.60
2022-11-23T12:08:06.403Z,7.63
2022-11-23T12:10:41.957Z,6.65
2022-11-23T12:13:24.084Z,7.15
2022-11-23T12:16:29.912Z,5.90
2022-11-23T12:19:11.532Z,5.95
2022-11-23T12:22:10.903Z,6.35
2022-11-23T12:24:43.792Z,6.40
2022-11-23T12:27:29.529Z,6.47
2022-11-23T12:30:22.803Z,7.60
2022-11-23T12:32:52.308Z,6.53
2022-11-23T12:35:54.433Z,7.43
2022-11-23T12:38:39.479Z,7.88
2022-11-23T12:41:09.070Z,7.47
2022-11-23T12:43:50.470Z,8.55
2022-11-23T12:47:19.074Z,8.07
2022-11-23T12:49:53.932Z,9.57
2022-11-23T12:52:58.573Z,11.25
2022-11-23T12:55:52.993Z,10.07
2022-11-23T12:58:24.022Z,11.27
2022-11-23T13:00:59.846Z,8.70
2022-11-23T13:03:49.828Z,9.57
2022-11-23T13:07:28.533Z,10.00
2022-11-23T13:09:56.652Z,9.38
2022-11-23T13:12:26.495Z,10.38
2022-11-23T13:15:27.464Z,9.70
2022-11-23T13:18:12.500Z,9.50
2022-11-23T13:20:54.158Z,9.60
2022-11-23T13:23:23.733Z,9.13
2022-11-23T13:26:14.441Z,9.45
2022-11-23T13:28:41.733Z,10.27
2022-11-23T13:31:27.135Z,10.10
2022-11-23T13:33:56.900Z,10.38
2022-11-23T13:36:49.341Z,9.95
2022-11-23T13:39:45.311Z,11.15
2022-11-23T13:42:13.117Z,11.38
2022-11-23T13:44:40.211Z,12.75
2022-11-23T13:47:09.859Z,10.57
2022-11-23T13:49:44.666Z,11.05
2022-11-23T13:52:23.837Z,9.07
2022-11-23T13:55:07.352Z,9.57
2022-11-23T13:57:40.222Z,10.55
2022-11-23T14:00:44.332Z,9.48
2022-11-23T14:03:42.468Z,9.88
2022-11-23T14:06:21.975Z,9.27
2022-11-23T14:08:58.279Z,9.73
2022-11-23T14:11:27.403Z,8.27
2022-11-23T14:13:58.681Z,8.45
2022-11-23T14:16:57.227Z,7.88
2022-11-23T14:19:52.129Z,7.85
2022-11-23T14:22:21.890Z,11.25
2022-11-23T14:25:06.724Z,10.15
2022-11-23T14:27:51.563Z,13.25
2022-11-23T14:30:44.492Z,10.05
2022-11-23T14:33:23.039Z,9.13
2022-11-23T14:36:25.820Z,9.82
2022-11-23T14:39:17.864Z,11.02
2022-11-23T14:41:50.146Z,12.68
2022-11-23T14:44:20.480Z,12.00
2022-11-23T14:47:08.052Z,12.80
2022-11-23T14:49:35.186Z,12.23
2022-11-23T14:52:04.330Z,11.60
2022-11-23T14:54:32.394Z,12.17
2022-11-23T14:57:04.549Z,16.77
2022-11-23T14:59:37.691Z,12.43
2022-11-23T15:02:35.380Z,14.05
2022-11-23T15:05:24.189Z,13.63
2022-11-23T15:08:00.873Z,13.10
2022-11-23T15:10:38.852Z,14.23
2022-11-23T15:13:22.645Z,16.13
2022-11-23T15:15:52.647Z,14.25
2022-11-23T15:18:35.470Z,28.35
2022-11-23T15:21:07.070Z,13.15
2022-11-23T15:23:41.030Z,15.88
2022-11-23T15:26:41.768Z,15.60
2022-11-23T15:29:05.090Z,15.10
2022-11-23T15:31:36.765Z,14.52
2022-11-23T15:34:17.790Z,14.93
2022-11-23T15:36:46.310Z,14.32
2022-11-23T15:39:22.018Z,14.63
2022-11-23T15:41:49.748Z,14.23
2022-11-23T15:44:19.133Z,15.30
2022-11-23T15:46:49.332Z,14.45
2022-11-23T15:51:44.986Z,14.88
2022-11-23T15:54:29.043Z,15.15
2022-11-23T15:56:58.749Z,15.43
2022-11-23T15:59:40.565Z,17.20
2022-11-23T16:02:20.821Z,14.18
2022-11-23T16:04:47.840Z,15.35
2022-11-23T16:07:21.620Z,16.58
2022-11-23T16:09:53.092Z,14.05
2022-11-23T16:12:31.953Z,14.55
2022-11-23T16:15:22.741Z,20.90
2022-11-23T16:17:49.668Z,25.92
2022-11-23T16:20:16.991Z,18.65
2022-11-23T16:22:49.592Z,18.88
2022-11-23T16:25:25.451Z,20.77
2022-11-23T16:28:06.903Z,23.10
2022-11-23T16:30:42.472Z,21.98
2022-11-23T16:33:18.083Z,25.58
2022-11-23T16:35:45.495Z,28.15
2022-11-23T16:38:15.370Z,32.03
2022-11-23T16:40:43.724Z,35.80
2022-11-23T16:43:11.849Z,37.85
2022-11-23T16:45:45.038Z,40.05
2022-11-23T16:48:26.992Z,37.55
2022-11-23T16:50:55.933Z,41.10
2022-11-23T16:53:23.743Z,42.28
2022-11-23T16:55:53.761Z,28.60
2022-11-23T16:58:21.574Z,32.03
2022-11-23T17:00:49.435Z,29.13
2022-11-23T17:03:18.759Z,25.98
2022-11-23T17:05:46.320Z,28.33
2022-11-23T17:08:15.683Z,26.98
2022-11-23T17:10:45.637Z,25.52
2022-11-23T17:13:38.757Z,26.38
2022-11-23T17:16:05.870Z,32.58
2022-11-23T17:18:32.718Z,31.73
2022-11-23T17:20:59.635Z,29.88
2022-11-23T17:23:26.470Z,30.92
2022-11-23T17:25:53.508Z,28.85
2022-11-23T17:28:23.114Z,37.72
2022-11-23T17:30:50.421Z,36.03
2022-11-23T17:33:17.553Z,34.75
2022-11-23T17:35:44.503Z,36.03
2022-11-23T17:38:16.969Z,37.15
2022-11-23T17:40:44.031Z,45.05
2022-11-23T17:43:14.353Z,39.30
2022-11-23T17:45:41.914Z,38.08
2022-11-23T17:48:12.330Z,44.60
2022-11-23T17:50:39.200Z,43.38
2022-11-23T17:53:06.172Z,40.50
2022-11-23T17:55:33.113Z,39.67
2022-11-23T17:57:59.912Z,40.03
2022-11-23T18:00:29.443Z,39.67
2022-11-23T18:02:56.265Z,48.17
2022-11-23T18:05:23.286Z,43.13
2022-11-23T18:07:51.319Z,46.22
2022-11-23T18:10:18.560Z,43.08
2022-11-23T18:12:46.025Z,46.50
2022-11-23T18:15:13.227Z,45.00
2022-11-23T18:17:40.434Z,45.20
2022-11-23T18:20:08.454Z,50.08
2022-11-23T18:22:35.697Z,52.58
2022-11-23T18:25:02.628Z,49.35
2022-11-23T18:27:32.242Z,54.03
2022-11-23T18:29:59.136Z,50.25
2022-11-23T18:32:26.155Z,50.53
2022-11-23T18:34:53.068Z,47.40
2022-11-23T18:37:19.908Z,42.75
2022-11-23T18:39:46.974Z,55.95
2022-11-23T18:42:14.437Z,56.15
2022-11-23T18:44:41.464Z,45.33
2022-11-23T18:47:08.646Z,51.70
2022-11-23T18:49:36.012Z,48.72
2022-11-23T18:52:03.136Z,46.65
2022-11-23T18:54:30.032Z,49.03
2022-11-23T18:56:56.950Z,49.53
2022-11-23T19:02:11.916Z,53.15
2022-11-23T19:04:39.016Z,53.92
2022-11-23T19:07:05.960Z,56.13
2022-11-23T19:09:33.122Z,53.65
2022-11-23T19:12:01.243Z,50.70
2022-11-23T19:14:28.057Z,48.55
2022-11-23T19:16:54.948Z,53.60
2022-11-23T19:19:21.910Z,38.97
2022-11-23T19:21:48.923Z,47.70
2022-11-23T19:24:15.737Z,48.55
2022-11-23T19:26:42.602Z,46.17
2022-11-23T19:29:09.458Z,45.85
2022-11-23T19:31:36.358Z,44.45
2022-11-23T19:34:10.553Z,45.88
2022-11-23T19:36:42.900Z,46.05
2022-11-23T19:39:19.447Z,46.33
2022-11-23T19:41:51.584Z,51.08
2022-11-23T19:44:26.401Z,50.47
2022-11-23T19:46:56.059Z,50.88
2022-11-23T19:49:27.566Z,49.83
2022-11-23T19:52:00.837Z,49.83
2022-11-23T19:54:36.880Z,51.55
2022-11-23T19:57:04.940Z,50.40
2022-11-23T19:59:32.239Z,56.60
2022-11-23T20:01:59.426Z,50.17
2022-11-23T20:04:29.524Z,49.03
2022-11-23T20:07:00.516Z,49.40
2022-11-23T20:09:28.671Z,51.50
2022-11-23T20:11:55.573Z,52.13
2022-11-23T20:14:22.470Z,58.03
2022-11-23T20:16:50.733Z,54.40
2022-11-23T20:19:17.659Z,58.47
2022-11-23T20:21:45.524Z,55.22
2022-11-23T20:24:14.171Z,58.95
2022-11-23T20:26:42.102Z,55.88
2022-11-23T20:29:13.934Z,60.80
2022-11-23T20:31:41.299Z,55.10
2022-11-23T20:34:10.728Z,55.00
2022-11-23T20:36:40.136Z,68.95
2022-11-23T20:39:10.689Z,73.68
2022-11-23T20:41:38.329Z,74.90
2022-11-23T20:44:13.531Z,58.17
2022-11-23T20:49:27.735Z,53.72
2022-11-23T20:51:54.619Z,58.20
2022-11-23T20:54:21.542Z,65.47
2022-11-23T20:56:48.356Z,58.85
2022-11-23T20:59:15.316Z,67.75
2022-11-23T21:01:42.263Z,68.32
2022-11-23T21:04:09.435Z,68.88
2022-11-23T21:06:39.497Z,67.30
2022-11-23T21:09:07.978Z,61.75
2022-11-23T21:11:53.316Z,57.65
2022-11-23T21:14:28.275Z,54.40
2022-11-23T21:16:59.728Z,54.92
2022-11-23T21:19:29.635Z,53.83
2022-11-23T21:21:57.781Z,56.05
2022-11-23T21:24:25.726Z,63.55
2022-11-23T21:26:52.564Z,69.57
2022-11-23T21:29:19.519Z,61.25
2022-11-23T21:31:48.038Z,59.90
2022-11-23T21:34:35.576Z,55.70
2022-11-23T21:37:02.674Z,56.97
2022-11-23T21:39:31.250Z,65.20
2022-11-23T21:41:58.433Z,72.78
2022-11-23T21:44:25.299Z,58.97
2022-11-23T21:46:53.479Z,57.35
2022-11-23T21:49:20.447Z,50.63
2022-11-23T21:51:48.009Z,50.63
2022-11-23T21:54:16.119Z,54.08
2022-11-23T21:56:44.730Z,47.72
2022-11-23T21:59:14.154Z,53.28
2022-11-23T22:01:41.263Z,45.50
2022-11-23T22:04:10.920Z,46.63
2022-11-23T22:06:39.190Z,44.33
2022-11-23T22:09:09.477Z,48.05
2022-11-23T22:11:38.024Z,52.05
2022-11-23T22:14:11.986Z,47.90
2022-11-23T22:16:43.837Z,58.38
2022-11-23T22:19:12.501Z,63.85
2022-11-23T22:21:40.541Z,67.40
2022-11-23T22:24:14.290Z,55.92
2022-11-23T22:26:41.997Z,51.53
2022-11-23T22:29:09.636Z,52.45
2022-11-23T22:31:36.847Z,53.72
2022-11-23T22:34:10.235Z,56.72
2022-11-23T22:36:37.141Z,67.72
2022-11-23T22:39:05.942Z,78.30
2022-11-23T22:41:39.422Z,70.07
2022-11-23T22:44:08.924Z,68.43
2022-11-23T22:46:36.972Z,66.72
2022-11-23T22:49:04.095Z,65.28
2022-11-23T22:51:30.979Z,67.10
2022-11-23T22:53:59.921Z,68.00
2022-11-23T22:56:27.935Z,59.22
2022-11-23T22:58:55.026Z,55.20
2022-11-23T23:01:26.264Z,55.25
2022-11-23T23:03:55.770Z,56.78
2022-11-23T23:06:28.692Z,62.00
2022-11-23T23:09:00.750Z,56.03
2022-11-23T23:11:30.712Z,57.65
2022-11-23T23:13:58.541Z,58.35
2022-11-23T23:16:26.764Z,62.15
2022-11-23T23:18:56.636Z,51.53
2022-11-23T23:21:24.995Z,53.22
2022-11-23T23:23:54.333Z,52.45
2022-11-23T23:26:23.781Z,47.43
2022-11-23T23:28:55.903Z,50.08
2022-11-23T23:31:23.386Z,48.78
2022-11-23T23:33:50.322Z,46.90
2022-11-23T23:36:22.447Z,49.17
2022-11-23T23:38:49.900Z,48.15
2022-11-23T23:41:16.906Z,53.40
2022-11-23T23:43:43.881Z,47.45
2022-11-23T23:46:13.384Z,46.67
2022-11-23T23:48:41.407Z,48.80
2022-11-23T23:51:10.822Z,52.58
2022-11-23T23:53:38.296Z,58.75
2022-11-23T23:56:16.822Z,55.35
2022-11-23T23:58:44.622Z,51.63
